createdAt,value
2022-08-27T00:00:46.904Z,100401.09
2022-08-27T00:03:14.938Z,100414.47
2022-08-27T00:05:42.754Z,100411.97
2022-08-27T00:08:12.688Z,100411.97
2022-08-27T00:10:41.613Z,100410.91
2022-08-27T00:13:09.001Z,100419.06
2022-08-27T00:15:36.862Z,100411.97
2022-08-27T00:18:05.549Z,100411.75
2022-08-27T00:20:33.622Z,100415.31
2022-08-27T00:23:01.447Z,100411.75
2022-08-27T00:25:28.827Z,100417.19
2022-08-27T00:27:56.089Z,100412.78
2022-08-27T00:30:23.983Z,100416.97
2022-08-27T00:32:51.363Z,100418.25
2022-08-27T00:35:18.886Z,100414.47
2022-08-27T00:37:46.268Z,100417.19
2022-08-27T00:40:17.422Z,100415.31
2022-08-27T00:42:46.059Z,100413.63
2022-08-27T00:45:16.953Z,100414.47
2022-08-27T00:47:49.329Z,100409.88
2022-08-27T00:50:23.385Z,100409.03
2022-08-27T00:52:57.482Z,100408.19
2022-08-27T00:55:28.753Z,100410.91
2022-08-27T00:58:14.559Z,100412.59
2022-08-27T01:00:42.548Z,100414.47
2022-08-27T01:03:09.907Z,100416.16
2022-08-27T01:05:38.517Z,100407.97
2022-08-27T01:08:14.250Z,100404.44
2022-08-27T01:10:42.358Z,100398.16
2022-08-27T01:13:11.710Z,100406.31
2022-08-27T01:15:41.177Z,100412.59
2022-08-27T01:18:09.920Z,100407.16
2022-08-27T01:20:54.390Z,100398.16
2022-08-27T01:23:36.806Z,100410.72
2022-08-27T01:26:06.765Z,100414.47
2022-08-27T01:28:37.555Z,100413.44
2022-08-27T01:31:08.256Z,100415.31
2022-08-27T01:33:35.647Z,100418.03
2022-08-27T01:36:03.920Z,100414.47
2022-08-27T01:38:31.778Z,100414.25
2022-08-27T01:41:00.838Z,100400.88
2022-08-27T01:43:30.108Z,100407.16
2022-08-27T01:45:57.415Z,100398.16
2022-08-27T01:48:24.812Z,100406.09
2022-08-27T01:50:52.095Z,100413.44
2022-08-27T01:53:23.248Z,100409.88
2022-08-27T01:55:52.516Z,100410.72
2022-08-27T01:58:25.165Z,100409.88
2022-08-27T02:00:56.415Z,100419.06
2022-08-27T02:03:25.007Z,100423.47
2022-08-27T02:05:52.803Z,100415.31
2022-08-27T02:08:20.856Z,100420.75
2022-08-27T02:10:49.076Z,100417.19
2022-08-27T02:13:17.446Z,100413.63
2022-08-27T02:15:45.699Z,100418.03
2022-08-27T02:18:14.920Z,100414.47
2022-08-27T02:20:43.881Z,100416.34
2022-08-27T02:23:11.739Z,100416.34
2022-08-27T02:25:39.334Z,100420.97
2022-08-27T02:28:08.363Z,100419.06
2022-08-27T02:30:36.589Z,100420.97
2022-08-27T02:33:05.834Z,100419.06
2022-08-27T02:35:38.778Z,100417.41
2022-08-27T02:38:08.172Z,100418.25
2022-08-27T02:40:37.352Z,100417.41
2022-08-27T02:43:05.631Z,100421.78
2022-08-27T02:45:32.897Z,100421.78
2022-08-27T02:48:03.345Z,100415.53
2022-08-27T02:50:30.696Z,100410.06
2022-08-27T02:52:57.969Z,100415.31
2022-08-27T02:55:25.229Z,100413.63
2022-08-27T02:57:52.558Z,100405.69
2022-08-27T03:00:23.319Z,100405.69
2022-08-27T03:02:50.727Z,100401.91
2022-08-27T03:05:19.002Z,100408.19
2022-08-27T03:07:46.289Z,100404.63
2022-08-27T03:10:15.602Z,100407.34
2022-08-27T03:12:44.224Z,100406.53
2022-08-27T03:15:16.687Z,100392.09
2022-08-27T03:18:02.500Z,100401.09
2022-08-27T03:20:29.881Z,100401.91
2022-08-27T03:22:57.380Z,100402.97
2022-08-27T03:25:24.957Z,100403.97
2022-08-27T03:27:52.311Z,100403.97
2022-08-27T03:30:22.023Z,100408.59
2022-08-27T03:32:49.440Z,100404.81
2022-08-27T03:35:17.424Z,100412.97
2022-08-27T03:37:44.667Z,100414.84
2022-08-27T03:40:13.503Z,100410.25
2022-08-27T03:42:42.822Z,100403.97
2022-08-27T03:45:11.227Z,100408.59
2022-08-27T03:47:38.804Z,100408.59
2022-08-27T03:50:07.211Z,100396.88
2022-08-27T03:52:36.264Z,100405.03
2022-08-27T03:55:06.492Z,100407.75
2022-08-27T03:57:33.842Z,100407.75
2022-08-27T04:00:01.330Z,100407.75
2022-08-27T04:02:28.863Z,100414.03
2022-08-27T04:04:57.774Z,100416.09
2022-08-27T04:07:25.120Z,100416.47
2022-08-27T04:09:52.453Z,100413.97
2022-08-27T04:12:19.808Z,100405.97
2022-08-27T04:14:47.309Z,100422.28
2022-08-27T04:17:14.655Z,100414.53
2022-08-27T04:19:41.920Z,100409.28
2022-08-27T04:22:09.198Z,100417.44
2022-08-27T04:24:38.032Z,100424.78
2022-08-27T04:27:06.441Z,100424.09
2022-08-27T04:29:34.476Z,100420.09
2022-08-27T04:32:02.133Z,100429.31
2022-08-27T04:34:30.861Z,100423.03
2022-08-27T04:36:58.129Z,100427.63
2022-08-27T04:39:30.402Z,100431.19
2022-08-27T04:41:59.559Z,100428.47
2022-08-27T04:44:30.392Z,100423.03
2022-08-27T04:47:00.830Z,100427.41
2022-08-27T04:49:29.859Z,100429.31
2022-08-27T04:51:59.360Z,100433.06
2022-08-27T04:54:32.226Z,100427.63
2022-08-27T04:57:02.776Z,100426.78
2022-08-27T04:59:31.794Z,100421.34
2022-08-27T05:01:59.910Z,100433.28
2022-08-27T05:04:30.782Z,100426.97
2022-08-27T05:06:58.160Z,100433.28
2022-08-27T05:09:26.905Z,100435.13
2022-08-27T05:11:55.536Z,100431.41
2022-08-27T05:14:24.331Z,100434.13
2022-08-27T05:16:51.765Z,100424.91
2022-08-27T05:19:19.013Z,100429.31
2022-08-27T05:21:49.446Z,100432.03
2022-08-27T05:24:19.173Z,100436.41
2022-08-27T05:26:46.619Z,100435.56
2022-08-27T05:29:14.728Z,100432.84
2022-08-27T05:31:43.167Z,100439.13
2022-08-27T05:34:18.867Z,100430.13
2022-08-27T05:36:49.614Z,100430.13
2022-08-27T05:39:17.551Z,100435.56
2022-08-27T05:41:44.902Z,100430.13
2022-08-27T05:44:40.228Z,100429.13
2022-08-27T05:46:59.589Z,100427.03
2022-08-27T05:49:26.841Z,100432.47
2022-08-27T05:51:54.179Z,100431.63
2022-08-27T05:54:21.492Z,100424.31
2022-08-27T05:56:50.066Z,100427.88
2022-08-27T05:59:36.742Z,100428.91
2022-08-27T06:02:06.252Z,100428.91
2022-08-27T06:04:33.841Z,100430.13
2022-08-27T06:07:01.131Z,100427.63
2022-08-27T06:09:29.439Z,100432.41
2022-08-27T06:11:59.734Z,100433.06
2022-08-27T06:14:28.305Z,100435.78
2022-08-27T06:16:56.410Z,100432.03
2022-08-27T06:19:24.135Z,100432.84
2022-08-27T06:22:01.057Z,100436.41
2022-08-27T06:24:39.792Z,100441.03
2022-08-27T06:27:09.828Z,100437.06
2022-08-27T06:29:37.342Z,100445.03
2022-08-27T06:32:05.593Z,100439.78
2022-08-27T06:34:33.890Z,100445.22
2022-08-27T06:37:01.687Z,100439.78
2022-08-27T06:39:29.178Z,100439.13
2022-08-27T06:41:58.840Z,100441.22
2022-08-27T06:44:27.024Z,100439.56
2022-08-27T06:46:54.541Z,100438.88
2022-08-27T06:49:21.870Z,100442.00
2022-08-27T06:51:49.332Z,100444.06
2022-08-27T06:54:18.603Z,100439.22
2022-08-27T06:56:45.899Z,100445.88
2022-08-27T06:59:15.932Z,100447.09
2022-08-27T07:01:46.823Z,100446.47
2022-08-27T07:04:19.519Z,100446.69
2022-08-27T07:06:46.926Z,100452.50
2022-08-27T07:09:14.288Z,100454.53
2022-08-27T07:11:41.592Z,100455.97
2022-08-27T07:14:09.718Z,100457.00
2022-08-27T07:16:37.728Z,100454.50
2022-08-27T07:19:08.350Z,100453.66
2022-08-27T07:21:36.260Z,100457.22
2022-08-27T07:24:05.587Z,100452.41
2022-08-27T07:26:37.054Z,100450.53
2022-08-27T07:29:09.905Z,100456.63
2022-08-27T07:31:38.861Z,100454.75
2022-08-27T07:34:06.712Z,100455.59
2022-08-27T07:36:35.110Z,100453.72
2022-08-27T07:39:02.364Z,100450.81
2022-08-27T07:41:31.834Z,100455.22
2022-08-27T07:44:18.931Z,100447.06
2022-08-27T07:46:48.585Z,100456.88
2022-08-27T07:49:18.101Z,100451.44
2022-08-27T07:51:45.964Z,100464.84
2022-08-27T07:54:13.507Z,100456.50
2022-08-27T07:56:41.656Z,100461.94
2022-08-27T07:59:11.497Z,100459.03
2022-08-27T08:01:38.863Z,100463.41
2022-08-27T08:04:06.245Z,100465.97
2022-08-27T08:06:42.206Z,100462.19
2022-08-27T08:09:11.417Z,100470.13
2022-08-27T08:11:42.385Z,100472.03
2022-08-27T08:14:09.738Z,100469.31
2022-08-27T08:16:37.117Z,100465.75
2022-08-27T08:19:04.441Z,100465.75
2022-08-27T08:21:31.967Z,100464.72
2022-08-27T08:24:00.075Z,100470.13
2022-08-27T08:26:27.669Z,100473.72
2022-08-27T08:28:55.615Z,100476.25
2022-08-27T08:31:24.358Z,100472.69
2022-08-27T08:33:52.281Z,100471.66
2022-08-27T08:36:22.164Z,100476.03
2022-08-27T08:38:50.906Z,100473.31
2022-08-27T08:41:43.454Z,100477.75
2022-08-27T08:44:25.998Z,100479.41
2022-08-27T08:46:59.767Z,100470.44
2022-08-27T08:49:49.607Z,100486.53
2022-08-27T08:52:35.561Z,100492.81
2022-08-27T08:55:15.029Z,100495.34
2022-08-27T08:58:01.168Z,100497.03
2022-08-27T09:00:28.461Z,100507.91
2022-08-27T09:02:55.934Z,100503.31
2022-08-27T09:05:27.367Z,100497.03
2022-08-27T09:08:34.119Z,100502.25
2022-08-27T09:11:08.261Z,100499.38
2022-08-27T09:13:42.041Z,100497.47
2022-08-27T09:16:09.781Z,100503.75
2022-08-27T09:18:40.887Z,100494.56
2022-08-27T09:21:28.075Z,100496.22
2022-08-27T09:24:01.868Z,100503.38
2022-08-27T09:26:32.349Z,100511.34
2022-08-27T09:29:17.480Z,100513.22
2022-08-27T09:31:53.994Z,100521.00
2022-08-27T09:34:21.817Z,100514.75
2022-08-27T09:36:51.694Z,100523.59
2022-08-27T09:39:19.177Z,100519.81
2022-08-27T09:41:48.940Z,100522.53
2022-08-27T09:44:22.847Z,100522.53
2022-08-27T09:46:59.417Z,100532.38
2022-08-27T09:49:27.234Z,100525.25
2022-08-27T09:51:56.184Z,100520.66
2022-08-27T09:54:46.674Z,100534.25
2022-08-27T09:57:30.742Z,100529.03
2022-08-27T09:59:58.558Z,100524.41
2022-08-27T10:02:26.893Z,100529.03
2022-08-27T10:04:58.751Z,100531.53
2022-08-27T10:08:03.251Z,100531.75
2022-08-27T10:10:49.003Z,100525.63
2022-08-27T10:13:20.493Z,100545.72
2022-08-27T10:16:15.076Z,100564.09
2022-08-27T10:19:05.497Z,100550.69
2022-08-27T10:21:47.187Z,100555.31
2022-08-27T10:24:17.061Z,100552.78
2022-08-27T10:27:10.012Z,100552.97
2022-08-27T10:29:46.996Z,100547.91
2022-08-27T10:32:52.341Z,100539.75
2022-08-27T10:35:28.637Z,100542.66
2022-08-27T10:38:25.239Z,100552.03
2022-08-27T10:41:02.117Z,100553.91
2022-08-27T10:43:50.675Z,100575.88
2022-08-27T10:46:39.095Z,100585.91
2022-08-27T10:49:23.679Z,100589.66
2022-08-27T10:52:24.792Z,100589.84
2022-08-27T10:55:21.818Z,100575.63
2022-08-27T10:58:10.733Z,100565.75
2022-08-27T11:00:56.086Z,100566.78
2022-08-27T11:03:33.599Z,100594.19
2022-08-27T11:06:19.096Z,100606.28
2022-08-27T11:08:52.094Z,100611.91
2022-08-27T11:12:13.228Z,100593.25
2022-08-27T11:14:56.885Z,100600.94
2022-08-27T11:17:32.064Z,100589.59
2022-08-27T11:20:15.351Z,100588.75
2022-08-27T11:22:47.204Z,100598.13
2022-08-27T11:25:21.974Z,100605.44
2022-08-27T11:27:52.073Z,100590.19
2022-08-27T11:30:46.519Z,100588.66
2022-08-27T11:33:35.554Z,100597.84
2022-08-27T11:36:09.026Z,100595.16
2022-08-27T11:38:53.662Z,100601.41
2022-08-27T11:41:45.367Z,100612.13
2022-08-27T11:44:15.241Z,100635.53
2022-08-27T11:46:48.670Z,100648.09
2022-08-27T11:49:29.913Z,100666.06
2022-08-27T11:52:01.105Z,100666.47
2022-08-27T11:54:42.718Z,100676.09
2022-08-27T11:57:25.263Z,100665.91
2022-08-27T11:59:53.120Z,100652.47
2022-08-27T12:02:20.308Z,100642.84
2022-08-27T12:04:49.623Z,100647.91
2022-08-27T12:07:17.438Z,100647.72
2022-08-27T12:09:54.975Z,100659.44
2022-08-27T12:13:21.299Z,100646.22
2022-08-27T12:15:51.757Z,100643.75
2022-08-27T12:18:32.629Z,100643.66
2022-08-27T12:21:11.783Z,100612.56
2022-08-27T12:24:05.202Z,100596.94
2022-08-27T12:26:34.614Z,100593.19
2022-08-27T12:29:31.545Z,100604.41
2022-08-27T12:32:40.776Z,100614.59
2022-08-27T12:35:36.072Z,100630.06
2022-08-27T12:38:17.151Z,100637.00
2022-08-27T12:41:09.289Z,100622.59
2022-08-27T12:43:43.299Z,100617.53
2022-08-27T12:46:20.329Z,100619.97
2022-08-27T12:48:55.235Z,100633.06
2022-08-27T12:51:25.974Z,100615.47
2022-08-27T12:54:13.189Z,100611.91
2022-08-27T12:57:12.535Z,100616.66
2022-08-27T13:00:18.817Z,100623.97
2022-08-27T13:03:04.838Z,100617.91
2022-08-27T13:05:44.666Z,100621.09
2022-08-27T13:08:18.978Z,100630.38
2022-08-27T13:10:46.296Z,100629.13
2022-08-27T13:13:20.956Z,100630.09
2022-08-27T13:16:02.114Z,100628.09
2022-08-27T13:18:30.547Z,100623.72
2022-08-27T13:21:28.528Z,100613.50
2022-08-27T13:24:01.422Z,100604.56
2022-08-27T13:26:34.149Z,100593.47
2022-08-27T13:29:03.770Z,100581.69
2022-08-27T13:31:32.479Z,100571.06
2022-08-27T13:34:01.096Z,100560.66
2022-08-27T13:36:32.131Z,100560.38
2022-08-27T13:39:02.515Z,100548.59
2022-08-27T13:41:38.483Z,100540.59
2022-08-27T13:44:07.464Z,100527.50
2022-08-27T13:46:48.654Z,100532.34
2022-08-27T13:49:23.032Z,100537.03
2022-08-27T13:52:00.273Z,100552.78
2022-08-27T13:54:28.435Z,100553.94
2022-08-27T13:57:03.694Z,100565.06
2022-08-27T13:59:31.679Z,100565.34
2022-08-27T14:02:11.364Z,100562.06
2022-08-27T14:04:39.136Z,100557.94
2022-08-27T14:07:09.266Z,100563.84
2022-08-27T14:09:45.489Z,100567.03
2022-08-27T14:12:33.079Z,100561.78
2022-08-27T14:15:34.133Z,100556.16
2022-08-27T14:18:04.377Z,100556.09
2022-08-27T14:20:32.172Z,100561.25
2022-08-27T14:22:59.649Z,100551.50
2022-08-27T14:25:26.972Z,100556.94
2022-08-27T14:27:57.202Z,100546.63
2022-08-27T14:30:29.266Z,100543.06
2022-08-27T14:32:59.167Z,100534.38
2022-08-27T14:35:28.112Z,100543.63
2022-08-27T14:37:55.771Z,100541.19
2022-08-27T14:40:23.233Z,100533.03
2022-08-27T14:42:50.916Z,100534.34
2022-08-27T14:45:18.538Z,100534.19
2022-08-27T14:47:45.874Z,100534.44
2022-08-27T14:50:14.079Z,100528.66
2022-08-27T14:52:41.652Z,100524.72
2022-08-27T14:55:10.952Z,100531.00
2022-08-27T14:57:38.811Z,100525.09
2022-08-27T15:00:08.209Z,100523.03
2022-08-27T15:02:40.005Z,100518.72
2022-08-27T15:05:11.815Z,100516.00
2022-08-27T15:07:41.702Z,100520.41
2022-08-27T15:10:15.367Z,100520.13
2022-08-27T15:12:43.354Z,100512.81
2022-08-27T15:15:11.716Z,100511.97
2022-08-27T15:17:39.075Z,100509.06
2022-08-27T15:20:09.423Z,100508.91
2022-08-27T15:22:44.177Z,100501.94
2022-08-27T15:25:15.516Z,100492.19
2022-08-27T15:27:43.167Z,100487.81
2022-08-27T15:30:13.031Z,100488.28
2022-08-27T15:32:46.553Z,100482.47
2022-08-27T15:35:17.341Z,100488.09
2022-08-27T15:37:45.659Z,100492.22
2022-08-27T15:40:15.326Z,100496.25
2022-08-27T15:42:43.348Z,100498.31
2022-08-27T15:45:13.269Z,100507.00
2022-08-27T15:47:40.638Z,100509.09
2022-08-27T15:50:08.495Z,100517.81
2022-08-27T15:52:40.853Z,100511.59
2022-08-27T15:55:30.289Z,100520.22
2022-08-27T15:57:58.357Z,100520.88
2022-08-27T16:00:26.835Z,100523.56
2022-08-27T16:02:54.572Z,100516.19
2022-08-27T16:05:22.702Z,100514.69
2022-08-27T16:07:50.567Z,100512.91
2022-08-27T16:10:17.944Z,100516.28
2022-08-27T16:12:46.298Z,100517.81
2022-08-27T16:15:14.974Z,100515.44
2022-08-27T16:17:42.634Z,100509.75
2022-08-27T16:20:12.965Z,100502.25
2022-08-27T16:22:41.959Z,100510.66
2022-08-27T16:25:13.131Z,100506.75
2022-08-27T16:27:42.643Z,100507.09
2022-08-27T16:30:12.745Z,100504.22
2022-08-27T16:32:40.516Z,100500.94
2022-08-27T16:35:08.909Z,100511.03
2022-08-27T16:37:36.391Z,100500.44
2022-08-27T16:40:04.225Z,100497.19
2022-08-27T16:42:33.273Z,100509.16
2022-08-27T16:45:01.572Z,100506.06
2022-08-27T16:47:28.956Z,100499.22
2022-08-27T16:50:22.883Z,100496.97
2022-08-27T16:52:52.906Z,100502.00
2022-08-27T16:55:20.204Z,100498.91
2022-08-27T16:57:47.445Z,100500.44
2022-08-27T17:00:14.934Z,100492.91
2022-08-27T17:02:42.628Z,100495.63
2022-08-27T17:05:33.559Z,100496.28
2022-08-27T17:07:59.471Z,100491.50
2022-08-27T17:10:33.927Z,100488.78
2022-08-27T17:13:01.282Z,100497.59
2022-08-27T17:15:28.769Z,100494.69
2022-08-27T17:17:57.906Z,100492.81
2022-08-27T17:20:25.734Z,100492.81
2022-08-27T17:22:57.256Z,100496.22
2022-08-27T17:25:30.070Z,100490.78
2022-08-27T17:28:00.238Z,100494.13
2022-08-27T17:30:28.161Z,100493.28
2022-08-27T17:32:55.574Z,100496.84
2022-08-27T17:35:22.874Z,100493.97
2022-08-27T17:37:50.179Z,100503.78
2022-08-27T17:40:17.567Z,100501.91
2022-08-27T17:42:44.860Z,100493.75
2022-08-27T17:45:12.275Z,100493.75
2022-08-27T17:47:39.567Z,100498.16
2022-08-27T17:50:07.169Z,100499.00
2022-08-27T17:52:37.690Z,100499.84
2022-08-27T17:55:05.918Z,100506.13
2022-08-27T17:57:40.401Z,100515.13
2022-08-27T18:00:13.007Z,100510.53
2022-08-27T18:02:46.975Z,100523.91
2022-08-27T18:05:16.452Z,100529.34
2022-08-27T18:07:44.273Z,100532.06
2022-08-27T18:10:14.020Z,100536.50
2022-08-27T18:12:42.192Z,100536.66
2022-08-27T18:15:35.784Z,100538.16
2022-08-27T18:18:04.562Z,100534.41
2022-08-27T18:20:33.942Z,100521.03
2022-08-27T18:23:03.530Z,100525.41
2022-08-27T18:25:36.020Z,100525.41
2022-08-27T18:28:09.125Z,100534.41
2022-08-27T18:30:39.503Z,100518.09
2022-08-27T18:33:08.131Z,100525.22
2022-08-27T18:35:36.674Z,100530.66
2022-08-27T18:38:04.807Z,100536.09
2022-08-27T18:40:38.209Z,100530.66
2022-08-27T18:43:05.948Z,100536.91
2022-08-27T18:45:36.039Z,100542.19
2022-08-27T18:48:13.158Z,100535.06
2022-08-27T18:50:47.930Z,100539.47
2022-08-27T18:53:18.480Z,100543.03
2022-08-27T18:55:46.418Z,100550.34
2022-08-27T18:58:13.917Z,100556.63
2022-08-27T19:00:44.393Z,100567.50
2022-08-27T19:03:26.259Z,100566.44
2022-08-27T19:05:55.033Z,100580.88
2022-08-27T19:08:24.559Z,100580.88
2022-08-27T19:10:51.886Z,100576.28
2022-08-27T19:13:19.363Z,100586.31
2022-08-27T19:15:52.743Z,100597.19
2022-08-27T19:18:21.500Z,100601.59
2022-08-27T19:20:48.884Z,100603.28
2022-08-27T19:23:16.371Z,100596.16
2022-08-27T19:25:50.347Z,100602.44
2022-08-27T19:28:23.133Z,100610.59
2022-08-27T19:30:50.504Z,100608.72
2022-08-27T19:33:18.107Z,100617.72
2022-08-27T19:35:45.481Z,100618.56
2022-08-27T19:38:14.421Z,100613.13
2022-08-27T19:40:42.286Z,100615.00
2022-08-27T19:43:10.109Z,100619.41
2022-08-27T19:45:40.290Z,100618.56
2022-08-27T19:48:08.794Z,100625.66
2022-08-27T19:50:36.116Z,100628.38
2022-08-27T19:53:04.183Z,100620.22
2022-08-27T19:55:31.531Z,100622.13
2022-08-27T19:57:58.860Z,100619.41
2022-08-27T20:00:27.838Z,100618.56
2022-08-27T20:02:55.878Z,100617.50
2022-08-27T20:05:23.301Z,100618.34
2022-08-27T20:07:52.630Z,100617.50
2022-08-27T20:10:25.757Z,100622.78
2022-08-27T20:12:59.662Z,100616.50
2022-08-27T20:15:27.148Z,100616.50
2022-08-27T20:17:54.510Z,100613.78
2022-08-27T20:20:24.536Z,100611.06
2022-08-27T20:22:52.007Z,100611.91
2022-08-27T20:25:19.828Z,100607.31
2022-08-27T20:27:47.726Z,100604.59
2022-08-27T20:30:16.908Z,100602.91
2022-08-27T20:32:46.694Z,100602.72
2022-08-27T20:35:15.961Z,100607.31
2022-08-27T20:37:43.489Z,100609.19
2022-08-27T20:40:16.044Z,100603.56
2022-08-27T20:42:44.486Z,100609.19
2022-08-27T20:45:13.294Z,100608.16
2022-08-27T20:47:43.370Z,100606.47
2022-08-27T20:50:12.871Z,100616.31
2022-08-27T20:52:41.899Z,100601.03
2022-08-27T20:55:09.973Z,100607.31
2022-08-27T20:57:37.240Z,100605.44
2022-08-27T21:00:21.387Z,100609.00
2022-08-27T21:02:48.838Z,100609.00
2022-08-27T21:05:18.029Z,100613.59
2022-08-27T21:07:48.561Z,100604.38
2022-08-27T21:10:15.940Z,100595.41
2022-08-27T21:12:44.362Z,100602.72
2022-08-27T21:15:12.286Z,100598.94
2022-08-27T21:17:39.801Z,100600.84
2022-08-27T21:20:11.011Z,100600.84
2022-08-27T21:22:39.979Z,100600.00
2022-08-27T21:25:08.840Z,100604.38
2022-08-27T21:27:36.543Z,100609.81
2022-08-27T21:30:04.819Z,100617.16
2022-08-27T21:32:32.596Z,100625.09
2022-08-27T21:34:59.946Z,100623.41
2022-08-27T21:37:27.269Z,100630.72
2022-08-27T21:39:54.654Z,100641.41
2022-08-27T21:42:22.005Z,100643.28
2022-08-27T21:44:50.555Z,100641.41
2022-08-27T21:47:17.893Z,100646.00
2022-08-27T21:49:45.296Z,100655.00
2022-08-27T21:52:12.896Z,100654.16
2022-08-27T21:54:42.180Z,100660.44
2022-08-27T21:57:14.032Z,100659.59
2022-08-27T21:59:45.878Z,100658.59
2022-08-27T22:02:38.308Z,100665.88
2022-08-27T22:05:02.391Z,100670.31
2022-08-27T22:07:29.797Z,100672.19
2022-08-27T22:09:57.159Z,100680.34
2022-08-27T22:12:25.478Z,100675.91
2022-08-27T22:14:52.813Z,100680.34
2022-08-27T22:17:20.333Z,100674.91
2022-08-27T22:19:47.621Z,100672.19
2022-08-27T22:22:14.976Z,100680.34
2022-08-27T22:24:42.240Z,100677.63
2022-08-27T22:27:09.579Z,100677.63
2022-08-27T22:29:37.000Z,100671.31
2022-08-27T22:32:07.539Z,100676.09
2022-08-27T22:34:36.238Z,100673.28
2022-08-27T22:37:04.297Z,100677.63
2022-08-27T22:39:31.812Z,100681.06
2022-08-27T22:42:00.159Z,100672.53
2022-08-27T22:44:29.417Z,100678.69
2022-08-27T22:46:57.226Z,100669.59
2022-08-27T22:49:24.652Z,100669.31
2022-08-27T22:51:51.921Z,100669.69
2022-08-27T22:54:19.220Z,100674.84
2022-08-27T22:56:46.574Z,100669.13
2022-08-27T22:59:14.367Z,100665.25
2022-08-27T23:01:41.906Z,100665.81
2022-08-27T23:04:09.323Z,100668.06
2022-08-27T23:06:36.915Z,100672.16
2022-08-27T23:09:04.581Z,100671.50
2022-08-27T23:11:31.919Z,100668.13
2022-08-27T23:13:59.895Z,100663.72
2022-08-27T23:16:28.150Z,100670.00
2022-08-27T23:18:55.496Z,100673.75
2022-08-27T23:21:23.002Z,100676.66
2022-08-27T23:23:50.245Z,100685.44
2022-08-27T23:26:36.401Z,100689.00
2022-08-27T23:29:03.691Z,100692.56
2022-08-27T23:31:32.329Z,100696.66
2022-08-27T23:33:59.880Z,100694.97
2022-08-27T23:36:29.360Z,100690.59
2022-08-27T23:38:58.360Z,100693.78
2022-08-27T23:41:28.268Z,100687.31
2022-08-27T23:43:55.721Z,100687.13
2022-08-27T23:46:23.073Z,100690.88
2022-08-27T23:48:50.402Z,100694.44
2022-08-27T23:51:17.786Z,100698.19
2022-08-27T23:53:45.120Z,100693.31
2022-08-27T23:56:14.593Z,100696.19
2022-08-27T23:58:42.004Z,100702.81
